createdAt,value
2018-07-16T00:00:41.528Z,2.33
2018-07-16T00:03:09.846Z,2.37
2018-07-16T00:05:38.180Z,2.23
2018-07-16T00:08:06.613Z,2.60
2018-07-16T00:10:34.974Z,1.90
2018-07-16T00:13:03.315Z,2.07
2018-07-16T00:15:31.712Z,2.50
2018-07-16T00:18:00.074Z,2.47
2018-07-16T00:20:28.414Z,2.47
2018-07-16T00:22:56.869Z,2.70
2018-07-16T00:25:25.215Z,2.60
2018-07-16T00:27:53.648Z,2.50
2018-07-16T00:30:21.991Z,2.90
2018-07-16T00:32:50.371Z,2.87
2018-07-16T00:35:18.742Z,2.43
2018-07-16T00:37:47.055Z,2.30
2018-07-16T00:40:15.400Z,2.43
2018-07-16T00:42:43.835Z,2.20
2018-07-16T00:45:12.259Z,2.27
2018-07-16T00:47:40.644Z,2.90
2018-07-16T00:50:08.950Z,2.50
2018-07-16T00:52:37.314Z,2.80
2018-07-16T00:55:05.756Z,2.97
2018-07-16T00:57:34.190Z,2.10
2018-07-16T01:00:02.549Z,3.17
2018-07-16T01:02:30.892Z,2.57
2018-07-16T01:04:59.240Z,3.00
2018-07-16T01:07:27.618Z,3.00
2018-07-16T01:09:56.003Z,2.67
2018-07-16T01:12:24.401Z,2.70
2018-07-16T01:14:52.791Z,3.03
2018-07-16T01:17:21.168Z,3.30
2018-07-16T01:19:49.531Z,2.90
2018-07-16T01:22:17.877Z,3.87
2018-07-16T01:24:46.302Z,2.97
2018-07-16T01:27:14.913Z,2.93
2018-07-16T01:29:43.234Z,2.97
2018-07-16T01:32:11.784Z,3.23
2018-07-16T01:34:40.086Z,3.20
2018-07-16T01:37:08.406Z,2.97
2018-07-16T01:39:36.730Z,3.37
2018-07-16T01:42:05.091Z,3.80
2018-07-16T01:44:33.462Z,3.77
2018-07-16T01:47:01.542Z,3.70
2018-07-16T01:49:29.579Z,3.17
2018-07-16T01:51:57.974Z,3.40
2018-07-16T01:54:26.324Z,3.40
2018-07-16T01:56:54.673Z,3.73
2018-07-16T01:59:23.314Z,3.10
2018-07-16T02:01:51.679Z,3.83
2018-07-16T02:04:20.047Z,3.63
2018-07-16T02:06:48.416Z,3.50
2018-07-16T02:09:16.461Z,3.60
2018-07-16T02:11:44.818Z,4.27
2018-07-16T02:14:13.153Z,4.00
2018-07-16T02:16:41.481Z,3.70
2018-07-16T02:19:09.812Z,4.00
2018-07-16T02:21:38.160Z,4.33
2018-07-16T02:24:06.678Z,3.40
2018-07-16T02:26:35.027Z,4.10
2018-07-16T02:29:03.396Z,3.97
2018-07-16T02:31:31.715Z,4.00
2018-07-16T02:34:00.171Z,3.50
2018-07-16T02:36:28.518Z,4.00
2018-07-16T02:38:57.070Z,4.00
2018-07-16T02:41:25.493Z,3.63
2018-07-16T02:43:53.872Z,3.70
2018-07-16T02:46:22.280Z,3.77
2018-07-16T02:48:50.611Z,3.60
2018-07-16T02:51:22.690Z,3.80
2018-07-16T02:53:51.028Z,3.70
2018-07-16T02:56:19.427Z,4.33
2018-07-16T02:58:47.747Z,3.93
2018-07-16T03:01:16.112Z,4.57
2018-07-16T03:03:44.443Z,4.60
2018-07-16T03:06:12.747Z,3.90
2018-07-16T03:08:40.775Z,4.57
2018-07-16T03:11:09.084Z,4.00
2018-07-16T03:13:37.421Z,4.40
2018-07-16T03:16:05.983Z,3.80
2018-07-16T03:18:34.305Z,4.23
2018-07-16T03:21:02.662Z,4.10
2018-07-16T03:23:30.984Z,4.43
2018-07-16T03:25:59.303Z,3.77
2018-07-16T03:34:13.254Z,4.23
2018-07-16T03:36:41.609Z,4.40
2018-07-16T03:39:10.608Z,3.93
2018-07-16T03:41:39.072Z,4.67
2018-07-16T03:44:07.588Z,3.87
2018-07-16T03:46:36.001Z,4.97
2018-07-16T03:49:04.556Z,7.20
2018-07-16T03:51:33.206Z,4.57
2018-07-16T03:54:01.539Z,4.50
2018-07-16T03:56:29.967Z,5.00
2018-07-16T03:58:58.388Z,4.90
2018-07-16T04:01:26.800Z,4.80
2018-07-16T04:03:55.306Z,4.00
2018-07-16T04:06:23.688Z,4.70
2018-07-16T04:08:52.133Z,4.43
2018-07-16T04:11:20.532Z,4.77
2018-07-16T04:13:49.045Z,4.23
2018-07-16T04:16:17.514Z,4.80
2018-07-16T04:18:45.939Z,5.10
2018-07-16T04:21:14.318Z,4.60
2018-07-16T04:23:42.691Z,11.40
2018-07-16T04:26:11.118Z,4.87
2018-07-16T04:28:39.783Z,5.00
2018-07-16T04:31:08.166Z,4.57
2018-07-16T04:33:36.645Z,4.60
2018-07-16T04:36:05.152Z,5.20
2018-07-16T04:38:33.596Z,4.43
2018-07-16T04:41:02.016Z,5.63
2018-07-16T04:43:30.395Z,4.10
2018-07-16T04:45:58.814Z,4.10
2018-07-16T04:48:27.348Z,4.60
2018-07-16T04:50:55.875Z,4.60
2018-07-16T04:53:24.284Z,4.50
2018-07-16T04:55:52.680Z,4.23
2018-07-16T04:58:21.042Z,4.67
2018-07-16T05:00:49.589Z,4.60
2018-07-16T05:03:18.081Z,4.90
2018-07-16T05:05:46.398Z,5.00
2018-07-16T05:08:14.786Z,4.70
2018-07-16T05:10:43.304Z,4.93
2018-07-16T05:13:11.414Z,4.50
2018-07-16T05:15:39.758Z,4.73
2018-07-16T05:18:08.241Z,4.37
2018-07-16T05:20:36.631Z,4.47
2018-07-16T05:23:05.312Z,4.57
2018-07-16T05:25:33.640Z,4.80
2018-07-16T05:28:02.303Z,4.90
2018-07-16T05:30:32.196Z,4.67
2018-07-16T16:47:24.938Z,1.70
2018-07-16T16:49:57.201Z,4.30
2018-07-16T16:52:26.769Z,4.80
2018-07-16T16:55:04.270Z,2.10
2018-07-16T17:23:09.362Z,1.95
2018-07-16T17:25:38.778Z,1.90
2018-07-16T17:28:07.874Z,1.53
2018-07-16T17:30:37.218Z,1.97
2018-07-16T17:33:06.374Z,2.37
2018-07-16T17:35:36.291Z,1.73
2018-07-16T17:38:12.371Z,1.50
2018-07-16T17:40:41.829Z,1.37
2018-07-16T17:43:12.182Z,1.67
2018-07-16T17:45:41.488Z,2.10
2018-07-16T17:48:10.441Z,2.00
2018-07-16T17:50:43.792Z,1.80
2018-07-16T17:53:12.886Z,2.30
2018-07-16T17:55:43.530Z,1.50
2018-07-16T17:58:12.288Z,1.70
2018-07-16T18:00:41.994Z,1.97
2018-07-16T18:03:10.988Z,1.77
2018-07-16T18:05:40.290Z,1.70
2018-07-16T18:08:10.203Z,1.30
2018-07-16T18:10:39.607Z,1.67
2018-07-16T18:13:09.375Z,2.00
2018-07-16T18:26:52.745Z,1.87
2018-07-16T18:29:22.632Z,1.70
2018-07-16T18:31:53.439Z,1.50
2018-07-16T18:34:22.765Z,1.80
2018-07-16T18:36:52.415Z,1.60
2018-07-16T18:39:23.182Z,1.83
2018-07-16T18:41:52.820Z,1.93
2018-07-16T18:44:31.026Z,1.97
2018-07-16T18:47:12.473Z,1.97
2018-07-16T18:49:42.797Z,1.73
2018-07-16T18:52:12.099Z,1.93
2018-07-16T18:54:41.397Z,1.80
2018-07-16T18:57:13.660Z,1.50
2018-07-16T18:59:43.171Z,2.00
2018-07-16T19:02:12.881Z,2.07
2018-07-16T19:04:42.109Z,2.00
2018-07-16T19:07:10.398Z,1.60
2018-07-16T19:09:39.035Z,1.60
2018-07-16T19:12:07.961Z,1.60
2018-07-16T19:14:36.985Z,1.90
2018-07-16T19:17:06.119Z,1.80
2018-07-16T19:19:34.825Z,1.97
2018-07-16T19:22:03.490Z,1.77
2018-07-16T19:24:32.477Z,1.77
2018-07-16T19:27:01.603Z,8.83
2018-07-16T19:29:30.151Z,2.63
2018-07-16T19:31:58.780Z,2.17
2018-07-16T19:34:27.910Z,1.60
2018-07-16T19:36:56.436Z,1.90
2018-07-16T19:39:25.319Z,3.60
2018-07-16T19:41:54.228Z,2.13
2018-07-16T19:44:22.903Z,1.80
2018-07-16T19:46:51.696Z,2.17
2018-07-16T19:49:23.772Z,2.20
2018-07-16T19:51:52.708Z,2.47
2018-07-16T19:54:21.368Z,2.27
2018-07-16T19:56:49.934Z,2.40
2018-07-16T19:59:18.496Z,2.20
2018-07-16T20:01:47.118Z,2.30
2018-07-16T20:04:15.676Z,4.70
2018-07-16T20:06:44.091Z,2.20
2018-07-16T20:09:12.757Z,2.20
2018-07-16T20:11:41.575Z,2.00
2018-07-16T20:14:10.055Z,1.93
2018-07-16T20:16:41.052Z,2.27
2018-07-16T20:19:09.493Z,2.37
2018-07-16T20:21:37.931Z,2.30
2018-07-16T20:24:06.487Z,2.50
2018-07-16T20:26:35.070Z,2.30
2018-07-16T20:29:03.533Z,1.93
2018-07-16T20:31:32.079Z,2.17
2018-07-16T20:34:00.508Z,2.40
2018-07-16T20:36:29.036Z,2.20
2018-07-16T20:38:57.152Z,2.50
2018-07-16T20:41:25.515Z,2.27
2018-07-16T20:43:54.171Z,2.57
2018-07-16T20:46:22.243Z,2.73
2018-07-16T20:48:50.311Z,2.87
2018-07-16T20:51:18.695Z,2.73
2018-07-16T20:53:46.811Z,2.60
2018-07-16T20:56:15.179Z,2.47
2018-07-16T20:58:43.676Z,2.87
2018-07-16T21:01:12.058Z,2.80
2018-07-16T21:03:40.470Z,3.13
2018-07-16T21:06:08.829Z,2.80
2018-07-16T21:08:37.301Z,2.20
2018-07-16T21:11:05.717Z,2.67
2018-07-16T21:13:34.137Z,2.80
2018-07-16T21:16:02.593Z,3.00
2018-07-16T21:18:30.988Z,2.40
2018-07-16T21:20:59.448Z,2.17
2018-07-16T21:23:27.960Z,3.33
2018-07-16T21:25:56.443Z,2.27
2018-07-16T21:28:24.912Z,2.93
2018-07-16T21:30:54.520Z,3.47
2018-07-16T21:33:22.928Z,2.80
2018-07-16T21:35:51.353Z,2.80
2018-07-16T21:38:19.766Z,2.43
2018-07-16T21:40:48.194Z,3.07
2018-07-16T21:43:16.214Z,2.63
2018-07-16T21:45:44.584Z,3.63
2018-07-16T21:48:12.654Z,2.90
2018-07-16T21:50:40.860Z,2.70
2018-07-16T21:53:11.343Z,3.07
2018-07-16T21:55:39.859Z,3.00
2018-07-16T21:58:08.272Z,3.20
2018-07-16T22:00:36.821Z,2.93
2018-07-16T22:03:05.181Z,3.50
2018-07-16T22:05:33.599Z,3.90
2018-07-16T22:08:02.003Z,4.23
2018-07-16T22:10:30.458Z,3.83
2018-07-16T22:12:58.893Z,3.90
2018-07-16T22:15:28.085Z,3.87
2018-07-16T22:17:57.352Z,3.87
2018-07-16T22:20:26.654Z,4.30
2018-07-16T22:22:55.261Z,4.57
2018-07-16T22:25:24.673Z,4.67
2018-07-16T22:27:53.060Z,4.33
2018-07-16T22:30:21.824Z,4.13
2018-07-16T22:32:50.263Z,4.70
2018-07-16T22:35:18.641Z,4.90
2018-07-16T22:37:47.015Z,4.90
2018-07-16T22:40:15.429Z,5.03
2018-07-16T22:42:43.842Z,4.87
2018-07-16T22:45:12.224Z,5.40
2018-07-16T22:47:40.744Z,5.37
2018-07-16T22:50:09.168Z,5.13
2018-07-16T22:52:37.548Z,5.37
2018-07-16T22:55:06.153Z,5.07
2018-07-16T22:57:34.485Z,5.10
2018-07-16T23:00:02.921Z,5.20
2018-07-16T23:02:31.291Z,5.47
2018-07-16T23:04:59.823Z,5.10
2018-07-16T23:07:28.268Z,4.90
2018-07-16T23:09:56.648Z,4.60
2018-07-16T23:12:25.084Z,4.10
2018-07-16T23:14:53.428Z,6.00
2018-07-16T23:17:21.799Z,5.03
2018-07-16T23:19:50.148Z,5.00
2018-07-16T23:22:18.542Z,4.87
2018-07-16T23:24:47.887Z,5.00
2018-07-16T23:27:16.361Z,4.80
2018-07-16T23:29:44.822Z,5.43
2018-07-16T23:32:13.234Z,4.43
2018-07-16T23:34:41.669Z,4.83
2018-07-16T23:37:10.075Z,4.50
2018-07-16T23:39:38.563Z,4.23
2018-07-16T23:42:07.019Z,4.20
2018-07-16T23:44:35.339Z,4.33
2018-07-16T23:47:03.735Z,4.10
2018-07-16T23:49:32.099Z,4.70
2018-07-16T23:52:00.526Z,3.87
2018-07-16T23:54:28.620Z,3.97
2018-07-16T23:56:56.969Z,4.40
2018-07-16T23:59:25.092Z,4.33
